sensor_id;sensor_type;location;lat;lon;timestamp;P1;durP1;ratioP1;P2;durP2;ratioP2
57085;SDS011;42964;42.910;23.792;2024-03-23T00:53:54;45.80;;;24.70;;
57085;SDS011;42964;42.910;23.792;2024-03-23T00:58:53;30.90;;;19.45;;
57085;SDS011;42964;42.910;23.792;2024-03-23T01:03:52;33.40;;;19.83;;
57085;SDS011;42964;42.910;23.792;2024-03-23T01:08:51;31.98;;;19.10;;
57085;SDS011;42964;42.910;23.792;2024-03-23T01:13:51;31.02;;;19.05;;
57085;SDS011;42964;42.910;23.792;2024-03-23T01:18:53;29.38;;;17.88;;
57085;SDS011;42964;42.910;23.792;2024-03-23T01:23:52;29.38;;;18.58;;
57085;SDS011;42964;42.910;23.792;2024-03-23T01:28:51;30.95;;;19.00;;
57085;SDS011;42964;42.910;23.792;2024-03-23T01:33:50;51.78;;;28.05;;
57085;SDS011;42964;42.910;23.792;2024-03-23T01:38:49;37.92;;;23.67;;
57085;SDS011;42964;42.910;23.792;2024-03-23T01:43:49;34.63;;;20.65;;
57085;SDS011;42964;42.910;23.792;2024-03-23T01:48:48;33.15;;;19.13;;
57085;SDS011;42964;42.910;23.792;2024-03-23T01:53:48;36.65;;;20.65;;
57085;SDS011;42964;42.910;23.792;2024-03-23T01:58:48;35.95;;;20.02;;
57085;SDS011;42964;42.910;23.792;2024-03-23T02:03:47;39.17;;;21.05;;
57085;SDS011;42964;42.910;23.792;2024-03-23T02:08:46;137.75;;;55.28;;
57085;SDS011;42964;42.910;23.792;2024-03-23T02:13:45;172.60;;;61.78;;
57085;SDS011;42964;42.910;23.792;2024-03-23T02:18:44;96.40;;;34.17;;
57085;SDS011;42964;42.910;23.792;2024-03-23T02:23:42;65.32;;;23.52;;
57085;SDS011;42964;42.910;23.792;2024-03-23T02:28:41;63.55;;;24.70;;
57085;SDS011;42964;42.910;23.792;2024-03-23T02:33:40;33.63;;;18.80;;
57085;SDS011;42964;42.910;23.792;2024-03-23T02:38:39;33.83;;;20.55;;
57085;SDS011;42964;42.910;23.792;2024-03-23T02:43:38;34.65;;;20.35;;
57085;SDS011;42964;42.910;23.792;2024-03-23T02:48:37;34.47;;;19.13;;
57085;SDS011;42964;42.910;23.792;2024-03-23T02:53:36;30.95;;;18.67;;
57085;SDS011;42964;42.910;23.792;2024-03-23T02:58:35;30.42;;;18.85;;
57085;SDS011;42964;42.910;23.792;2024-03-23T03:03:34;37.67;;;23.23;;
57085;SDS011;42964;42.910;23.792;2024-03-23T03:08:33;39.08;;;23.25;;
57085;SDS011;42964;42.910;23.792;2024-03-23T03:13:32;40.17;;;23.48;;
57085;SDS011;42964;42.910;23.792;2024-03-23T03:18:31;45.38;;;24.17;;
57085;SDS011;42964;42.910;23.792;2024-03-23T03:23:30;46.80;;;25.60;;
57085;SDS011;42964;42.910;23.792;2024-03-23T03:28:29;48.95;;;27.63;;
57085;SDS011;42964;42.910;23.792;2024-03-23T03:33:29;44.55;;;25.52;;
57085;SDS011;42964;42.910;23.792;2024-03-23T03:38:28;36.65;;;20.90;;
57085;SDS011;42964;42.910;23.792;2024-03-23T03:43:27;36.25;;;20.20;;
57085;SDS011;42964;42.910;23.792;2024-03-23T03:48:26;43.78;;;22.38;;
57085;SDS011;42964;42.910;23.792;2024-03-23T03:53:25;41.90;;;22.17;;
57085;SDS011;42964;42.910;23.792;2024-03-23T04:03:23;38.35;;;20.15;;
57085;SDS011;42964;42.910;23.792;2024-03-23T04:08:22;35.65;;;21.00;;
57085;SDS011;42964;42.910;23.792;2024-03-23T04:13:21;28.92;;;16.42;;
57085;SDS011;42964;42.910;23.792;2024-03-23T04:18:20;33.88;;;20.02;;
57085;SDS011;42964;42.910;23.792;2024-03-23T04:23:20;32.42;;;16.67;;
57085;SDS011;42964;42.910;23.792;2024-03-23T04:28:19;32.85;;;19.42;;
57085;SDS011;42964;42.910;23.792;2024-03-23T04:33:18;36.40;;;19.27;;
57085;SDS011;42964;42.910;23.792;2024-03-23T04:38:17;46.65;;;26.38;;
57085;SDS011;42964;42.910;23.792;2024-03-23T04:43:16;38.70;;;20.42;;
57085;SDS011;42964;42.910;23.792;2024-03-23T04:48:15;39.47;;;25.60;;
57085;SDS011;42964;42.910;23.792;2024-03-23T04:53:14;36.10;;;21.95;;
57085;SDS011;42964;42.910;23.792;2024-03-23T04:58:17;44.13;;;23.65;;
57085;SDS011;42964;42.910;23.792;2024-03-23T05:03:16;45.03;;;24.35;;
57085;SDS011;42964;42.910;23.792;2024-03-23T05:08:15;42.97;;;25.42;;
57085;SDS011;42964;42.910;23.792;2024-03-23T05:13:17;46.95;;;27.02;;
57085;SDS011;42964;42.910;23.792;2024-03-23T05:18:16;48.38;;;27.92;;
57085;SDS011;42964;42.910;23.792;2024-03-23T05:23:15;54.25;;;28.23;;
57085;SDS011;42964;42.910;23.792;2024-03-23T05:28:14;57.83;;;25.48;;
57085;SDS011;42964;42.910;23.792;2024-03-23T05:33:13;43.00;;;24.60;;
57085;SDS011;42964;42.910;23.792;2024-03-23T05:38:12;43.58;;;25.33;;
57085;SDS011;42964;42.910;23.792;2024-03-23T05:43:12;43.67;;;26.40;;
57085;SDS011;42964;42.910;23.792;2024-03-23T05:48:11;50.42;;;26.15;;
57085;SDS011;42964;42.910;23.792;2024-03-23T05:53:10;43.83;;;26.42;;
57085;SDS011;42964;42.910;23.792;2024-03-23T05:58:09;39.92;;;23.52;;
57085;SDS011;42964;42.910;23.792;2024-03-23T06:03:09;45.08;;;27.67;;
57085;SDS011;42964;42.910;23.792;2024-03-23T06:08:08;65.40;;;35.78;;
57085;SDS011;42964;42.910;23.792;2024-03-23T06:13:08;50.63;;;31.85;;
57085;SDS011;42964;42.910;23.792;2024-03-23T06:18:07;52.33;;;31.75;;
57085;SDS011;42964;42.910;23.792;2024-03-23T06:23:06;49.90;;;30.40;;
57085;SDS011;42964;42.910;23.792;2024-03-23T06:28:05;53.83;;;28.95;;
57085;SDS011;42964;42.910;23.792;2024-03-23T06:33:04;40.22;;;25.98;;
57085;SDS011;42964;42.910;23.792;2024-03-23T06:38:06;40.45;;;25.92;;
57085;SDS011;42964;42.910;23.792;2024-03-23T06:43:06;40.20;;;26.60;;
57085;SDS011;42964;42.910;23.792;2024-03-23T06:48:05;41.45;;;25.55;;
57085;SDS011;42964;42.910;23.792;2024-03-23T06:53:06;48.80;;;27.70;;
57085;SDS011;42964;42.910;23.792;2024-03-23T06:58:05;45.88;;;26.95;;
57085;SDS011;42964;42.910;23.792;2024-03-23T07:03:04;46.92;;;28.83;;
57085;SDS011;42964;42.910;23.792;2024-03-23T07:08:05;49.88;;;30.60;;
57085;SDS011;42964;42.910;23.792;2024-03-23T07:18:03;47.95;;;28.65;;
57085;SDS011;42964;42.910;23.792;2024-03-23T07:23:02;42.80;;;26.88;;
57085;SDS011;42964;42.910;23.792;2024-03-23T07:28:02;45.90;;;28.05;;
57085;SDS011;42964;42.910;23.792;2024-03-23T07:33:01;40.47;;;25.85;;
57085;SDS011;42964;42.910;23.792;2024-03-23T07:38:00;45.78;;;27.25;;
57085;SDS011;42964;42.910;23.792;2024-03-23T07:43:04;46.33;;;27.05;;
57085;SDS011;42964;42.910;23.792;2024-03-23T07:48:03;40.88;;;25.92;;
57085;SDS011;42964;42.910;23.792;2024-03-23T07:53:03;47.58;;;27.83;;
57085;SDS011;42964;42.910;23.792;2024-03-23T07:58:02;35.92;;;21.10;;
57085;SDS011;42964;42.910;23.792;2024-03-23T08:03:01;28.65;;;16.48;;
57085;SDS011;42964;42.910;23.792;2024-03-23T08:08:00;22.20;;;14.82;;
57085;SDS011;42964;42.910;23.792;2024-03-23T08:12:59;23.85;;;13.98;;
57085;SDS011;42964;42.910;23.792;2024-03-23T08:17:58;24.88;;;17.08;;
57085;SDS011;42964;42.910;23.792;2024-03-23T08:22:58;25.27;;;16.98;;
57085;SDS011;42964;42.910;23.792;2024-03-23T08:27:57;21.67;;;14.57;;
57085;SDS011;42964;42.910;23.792;2024-03-23T08:32:56;30.67;;;17.85;;
57085;SDS011;42964;42.910;23.792;2024-03-23T08:37:55;29.67;;;17.67;;
57085;SDS011;42964;42.910;23.792;2024-03-23T08:42:54;35.05;;;19.65;;
57085;SDS011;42964;42.910;23.792;2024-03-23T08:47:53;37.40;;;15.30;;
57085;SDS011;42964;42.910;23.792;2024-03-23T08:52:52;18.27;;;12.43;;
57085;SDS011;42964;42.910;23.792;2024-03-23T08:57:51;17.15;;;10.82;;
57085;SDS011;42964;42.910;23.792;2024-03-23T09:02:50;15.48;;;9.80;;
57085;SDS011;42964;42.910;23.792;2024-03-23T09:07:49;15.52;;;9.60;;
57085;SDS011;42964;42.910;23.792;2024-03-23T09:12:48;26.83;;;10.25;;
57085;SDS011;42964;42.910;23.792;2024-03-23T09:17:47;15.68;;;8.38;;
57085;SDS011;42964;42.910;23.792;2024-03-23T09:22:47;65.80;;;12.80;;
57085;SDS011;42964;42.910;23.792;2024-03-23T09:27:47;11.98;;;6.25;;
57085;SDS011;42964;42.910;23.792;2024-03-23T09:37:45;8.73;;;4.68;;
57085;SDS011;42964;42.910;23.792;2024-03-23T09:42:48;6.78;;;3.90;;
57085;SDS011;42964;42.910;23.792;2024-03-23T09:47:48;7.22;;;3.63;;
57085;SDS011;42964;42.910;23.792;2024-03-23T09:52:49;6.70;;;3.90;;
57085;SDS011;42964;42.910;23.792;2024-03-23T09:57:48;7.57;;;4.28;;
57085;SDS011;42964;42.910;23.792;2024-03-23T10:07:46;8.52;;;4.07;;
57085;SDS011;42964;42.910;23.792;2024-03-23T10:12:45;5.70;;;4.20;;
57085;SDS011;42964;42.910;23.792;2024-03-23T10:17:46;6.28;;;3.90;;
57085;SDS011;42964;42.910;23.792;2024-03-23T10:22:45;11.55;;;5.80;;
57085;SDS011;42964;42.910;23.792;2024-03-23T10:27:45;7.03;;;4.18;;
57085;SDS011;42964;42.910;23.792;2024-03-23T10:33:10;6.20;;;4.15;;
57085;SDS011;42964;42.910;23.792;2024-03-23T10:38:10;7.18;;;4.80;;
57085;SDS011;42964;42.910;23.792;2024-03-23T10:43:09;7.03;;;4.95;;
57085;SDS011;42964;42.910;23.792;2024-03-23T10:48:08;7.43;;;4.30;;
57085;SDS011;42964;42.910;23.792;2024-03-23T10:58:06;7.15;;;4.18;;
57085;SDS011;42964;42.910;23.792;2024-03-23T11:03:48;8.18;;;4.35;;
57085;SDS011;42964;42.910;23.792;2024-03-23T11:08:32;6.05;;;3.72;;
57085;SDS011;42964;42.910;23.792;2024-03-23T11:13:32;8.95;;;4.50;;
57085;SDS011;42964;42.910;23.792;2024-03-23T11:23:30;7.33;;;3.93;;
57085;SDS011;42964;42.910;23.792;2024-03-23T11:33:28;8.68;;;4.10;;
57085;SDS011;42964;42.910;23.792;2024-03-23T11:43:26;5.60;;;3.93;;
57085;SDS011;42964;42.910;23.792;2024-03-23T11:53:25;6.00;;;3.92;;
57085;SDS011;42964;42.910;23.792;2024-03-23T11:58:27;6.38;;;4.00;;
57085;SDS011;42964;42.910;23.792;2024-03-23T12:03:26;7.10;;;4.05;;
57085;SDS011;42964;42.910;23.792;2024-03-23T12:08:33;5.85;;;3.22;;
57085;SDS011;42964;42.910;23.792;2024-03-23T12:13:33;3.42;;;2.67;;
57085;SDS011;42964;42.910;23.792;2024-03-23T12:18:32;3.83;;;2.78;;
57085;SDS011;42964;42.910;23.792;2024-03-23T12:23:31;4.43;;;2.95;;
57085;SDS011;42964;42.910;23.792;2024-03-23T12:28:31;4.00;;;2.70;;
57085;SDS011;42964;42.910;23.792;2024-03-23T12:33:30;2.97;;;2.15;;
57085;SDS011;42964;42.910;23.792;2024-03-23T12:38:29;5.97;;;2.65;;
57085;SDS011;42964;42.910;23.792;2024-03-23T12:43:28;5.65;;;2.70;;
57085;SDS011;42964;42.910;23.792;2024-03-23T12:53:26;3.72;;;2.38;;
57085;SDS011;42964;42.910;23.792;2024-03-23T12:58:25;5.05;;;2.45;;
57085;SDS011;42964;42.910;23.792;2024-03-23T13:03:24;2.30;;;1.70;;
57085;SDS011;42964;42.910;23.792;2024-03-23T13:08:23;5.10;;;2.50;;
57085;SDS011;42964;42.910;23.792;2024-03-23T13:13:22;13.18;;;2.42;;
57085;SDS011;42964;42.910;23.792;2024-03-23T13:18:21;4.13;;;2.20;;
57085;SDS011;42964;42.910;23.792;2024-03-23T13:23:20;12.60;;;2.95;;
57085;SDS011;42964;42.910;23.792;2024-03-23T13:28:19;6.63;;;2.97;;
57085;SDS011;42964;42.910;23.792;2024-03-23T13:33:19;4.05;;;2.17;;
57085;SDS011;42964;42.910;23.792;2024-03-23T13:38:18;4.82;;;2.70;;
57085;SDS011;42964;42.910;23.792;2024-03-23T13:43:17;6.13;;;2.40;;
57085;SDS011;42964;42.910;23.792;2024-03-23T13:48:16;4.00;;;1.98;;
57085;SDS011;42964;42.910;23.792;2024-03-23T13:53:17;3.20;;;1.95;;
57085;SDS011;42964;42.910;23.792;2024-03-23T13:58:16;5.75;;;3.58;;
57085;SDS011;42964;42.910;23.792;2024-03-23T14:03:15;5.13;;;2.38;;
57085;SDS011;42964;42.910;23.792;2024-03-23T14:08:15;4.20;;;2.72;;
57085;SDS011;42964;42.910;23.792;2024-03-23T14:13:13;4.60;;;1.90;;
57085;SDS011;42964;42.910;23.792;2024-03-23T14:18:13;6.57;;;3.60;;
57085;SDS011;42964;42.910;23.792;2024-03-23T14:23:12;7.75;;;2.83;;
57085;SDS011;42964;42.910;23.792;2024-03-23T14:28:11;3.47;;;2.30;;
57085;SDS011;42964;42.910;23.792;2024-03-23T14:33:13;3.92;;;2.28;;
57085;SDS011;42964;42.910;23.792;2024-03-23T14:38:12;7.30;;;3.22;;
57085;SDS011;42964;42.910;23.792;2024-03-23T14:43:11;5.20;;;2.92;;
57085;SDS011;42964;42.910;23.792;2024-03-23T14:48:10;4.13;;;2.30;;
57085;SDS011;42964;42.910;23.792;2024-03-23T14:53:09;2.78;;;2.15;;
57085;SDS011;42964;42.910;23.792;2024-03-23T14:58:08;6.05;;;2.65;;
57085;SDS011;42964;42.910;23.792;2024-03-23T15:03:07;4.10;;;2.88;;
57085;SDS011;42964;42.910;23.792;2024-03-23T15:08:06;9.02;;;3.15;;
57085;SDS011;42964;42.910;23.792;2024-03-23T15:13:05;11.32;;;6.28;;
57085;SDS011;42964;42.910;23.792;2024-03-23T15:18:04;6.47;;;2.88;;
57085;SDS011;42964;42.910;23.792;2024-03-23T15:23:04;8.15;;;2.72;;
57085;SDS011;42964;42.910;23.792;2024-03-23T15:28:03;7.82;;;3.33;;
57085;SDS011;42964;42.910;23.792;2024-03-23T15:33:02;13.48;;;7.18;;
57085;SDS011;42964;42.910;23.792;2024-03-23T15:38:01;37.08;;;18.60;;
57085;SDS011;42964;42.910;23.792;2024-03-23T15:43:00;7.43;;;3.88;;
57085;SDS011;42964;42.910;23.792;2024-03-23T15:47:59;8.25;;;4.30;;
57085;SDS011;42964;42.910;23.792;2024-03-23T15:52:58;5.40;;;3.00;;
57085;SDS011;42964;42.910;23.792;2024-03-23T15:57:57;7.25;;;3.42;;
57085;SDS011;42964;42.910;23.792;2024-03-23T16:02:56;4.78;;;2.55;;
57085;SDS011;42964;42.910;23.792;2024-03-23T16:07:54;17.65;;;3.70;;
57085;SDS011;42964;42.910;23.792;2024-03-23T16:12:53;5.75;;;3.60;;
57085;SDS011;42964;42.910;23.792;2024-03-23T16:22:51;17.70;;;9.23;;
57085;SDS011;42964;42.910;23.792;2024-03-23T16:27:50;11.80;;;6.55;;
57085;SDS011;42964;42.910;23.792;2024-03-23T16:37:48;20.30;;;7.13;;
57085;SDS011;42964;42.910;23.792;2024-03-23T16:47:46;18.27;;;7.50;;
57085;SDS011;42964;42.910;23.792;2024-03-23T16:52:45;65.43;;;11.48;;
57085;SDS011;42964;42.910;23.792;2024-03-23T16:57:44;20.77;;;10.68;;
57085;SDS011;42964;42.910;23.792;2024-03-23T17:02:43;22.13;;;7.65;;
57085;SDS011;42964;42.910;23.792;2024-03-23T17:07:42;38.58;;;8.88;;
57085;SDS011;42964;42.910;23.792;2024-03-23T17:12:43;29.00;;;14.05;;
57085;SDS011;42964;42.910;23.792;2024-03-23T17:17:42;36.75;;;17.73;;
57085;SDS011;42964;42.910;23.792;2024-03-23T17:22:41;38.53;;;20.60;;
57085;SDS011;42964;42.910;23.792;2024-03-23T17:27:40;46.60;;;24.33;;
57085;SDS011;42964;42.910;23.792;2024-03-23T17:32:39;22.20;;;13.50;;
57085;SDS011;42964;42.910;23.792;2024-03-23T17:37:39;25.90;;;13.07;;
57085;SDS011;42964;42.910;23.792;2024-03-23T17:42:40;17.80;;;7.95;;
57085;SDS011;42964;42.910;23.792;2024-03-23T17:52:38;18.80;;;7.27;;
57085;SDS011;42964;42.910;23.792;2024-03-23T17:57:41;20.52;;;7.60;;
57085;SDS011;42964;42.910;23.792;2024-03-23T18:02:40;26.40;;;7.65;;
57085;SDS011;42964;42.910;23.792;2024-03-23T18:07:41;15.40;;;7.22;;
57085;SDS011;42964;42.910;23.792;2024-03-23T18:12:41;41.85;;;9.13;;
57085;SDS011;42964;42.910;23.792;2024-03-23T18:17:40;16.38;;;7.75;;
57085;SDS011;42964;42.910;23.792;2024-03-23T18:22:39;16.15;;;7.13;;
57085;SDS011;42964;42.910;23.792;2024-03-23T18:27:39;15.27;;;6.65;;
57085;SDS011;42964;42.910;23.792;2024-03-23T18:32:38;13.27;;;6.10;;
57085;SDS011;42964;42.910;23.792;2024-03-23T18:37:37;17.60;;;6.68;;
57085;SDS011;42964;42.910;23.792;2024-03-23T18:52:37;8.82;;;5.10;;
57085;SDS011;42964;42.910;23.792;2024-03-23T18:57:36;11.48;;;5.22;;
57085;SDS011;42964;42.910;23.792;2024-03-23T19:02:35;8.75;;;4.80;;
57085;SDS011;42964;42.910;23.792;2024-03-23T19:07:34;17.30;;;4.97;;
57085;SDS011;42964;42.910;23.792;2024-03-23T19:12:33;24.63;;;6.55;;
57085;SDS011;42964;42.910;23.792;2024-03-23T19:17:33;9.98;;;4.72;;
57085;SDS011;42964;42.910;23.792;2024-03-23T19:22:32;10.65;;;4.82;;
57085;SDS011;42964;42.910;23.792;2024-03-23T19:27:31;9.82;;;4.50;;
57085;SDS011;42964;42.910;23.792;2024-03-23T19:32:31;16.00;;;5.57;;
57085;SDS011;42964;42.910;23.792;2024-03-23T19:37:30;76.55;;;10.23;;
57085;SDS011;42964;42.910;23.792;2024-03-23T19:42:29;11.05;;;4.55;;
57085;SDS011;42964;42.910;23.792;2024-03-23T19:47:28;18.20;;;5.65;;
57085;SDS011;42964;42.910;23.792;2024-03-23T19:52:27;9.73;;;5.13;;
57085;SDS011;42964;42.910;23.792;2024-03-23T19:57:27;20.73;;;5.40;;
57085;SDS011;42964;42.910;23.792;2024-03-23T20:02:26;8.68;;;4.38;;
57085;SDS011;42964;42.910;23.792;2024-03-23T20:07:25;8.60;;;4.85;;
57085;SDS011;42964;42.910;23.792;2024-03-23T20:12:23;10.55;;;4.50;;
57085;SDS011;42964;42.910;23.792;2024-03-23T20:17:22;12.20;;;5.25;;
57085;SDS011;42964;42.910;23.792;2024-03-23T20:27:20;13.48;;;5.38;;
57085;SDS011;42964;42.910;23.792;2024-03-23T20:32:19;17.25;;;5.68;;
57085;SDS011;42964;42.910;23.792;2024-03-23T20:37:18;12.68;;;5.22;;
57085;SDS011;42964;42.910;23.792;2024-03-23T20:42:18;9.63;;;5.03;;
57085;SDS011;42964;42.910;23.792;2024-03-23T20:47:17;8.43;;;4.65;;
57085;SDS011;42964;42.910;23.792;2024-03-23T20:52:16;12.15;;;5.40;;
57085;SDS011;42964;42.910;23.792;2024-03-23T20:57:15;14.93;;;5.22;;
57085;SDS011;42964;42.910;23.792;2024-03-23T21:02:14;13.80;;;5.10;;
57085;SDS011;42964;42.910;23.792;2024-03-23T21:07:13;10.40;;;5.05;;
57085;SDS011;42964;42.910;23.792;2024-03-23T21:17:11;14.88;;;5.10;;
57085;SDS011;42964;42.910;23.792;2024-03-23T21:22:09;8.38;;;4.43;;
57085;SDS011;42964;42.910;23.792;2024-03-23T21:27:09;76.68;;;10.25;;
57085;SDS011;42964;42.910;23.792;2024-03-23T21:32:08;6.75;;;4.45;;
57085;SDS011;42964;42.910;23.792;2024-03-23T21:37:07;9.63;;;4.55;;
57085;SDS011;42964;42.910;23.792;2024-03-23T21:42:06;17.42;;;5.07;;
57085;SDS011;42964;42.910;23.792;2024-03-23T21:47:05;26.77;;;5.63;;
57085;SDS011;42964;42.910;23.792;2024-03-23T21:52:05;13.77;;;4.75;;
57085;SDS011;42964;42.910;23.792;2024-03-23T21:57:04;10.95;;;4.03;;
57085;SDS011;42964;42.910;23.792;2024-03-23T22:02:03;10.35;;;4.47;;
57085;SDS011;42964;42.910;23.792;2024-03-23T22:07:02;14.57;;;4.53;;
57085;SDS011;42964;42.910;23.792;2024-03-23T22:12:01;9.32;;;4.03;;
57085;SDS011;42964;42.910;23.792;2024-03-23T22:17:00;8.98;;;4.38;;
57085;SDS011;42964;42.910;23.792;2024-03-23T22:21:59;12.27;;;4.45;;
57085;SDS011;42964;42.910;23.792;2024-03-23T22:26:58;12.98;;;4.13;;
57085;SDS011;42964;42.910;23.792;2024-03-23T22:31:57;5.85;;;3.70;;
57085;SDS011;42964;42.910;23.792;2024-03-23T22:36:56;5.47;;;3.65;;
57085;SDS011;42964;42.910;23.792;2024-03-23T22:41:55;7.18;;;4.45;;
57085;SDS011;42964;42.910;23.792;2024-03-23T22:46:54;9.55;;;3.78;;
57085;SDS011;42964;42.910;23.792;2024-03-23T22:51:53;7.95;;;3.67;;
57085;SDS011;42964;42.910;23.792;2024-03-23T23:01:51;9.07;;;3.40;;
57085;SDS011;42964;42.910;23.792;2024-03-23T23:06:51;9.45;;;3.85;;
57085;SDS011;42964;42.910;23.792;2024-03-23T23:11:50;7.05;;;3.83;;
57085;SDS011;42964;42.910;23.792;2024-03-23T23:16:49;8.73;;;4.50;;
57085;SDS011;42964;42.910;23.792;2024-03-23T23:26:47;10.07;;;3.90;;
57085;SDS011;42964;42.910;23.792;2024-03-23T23:31:46;6.30;;;3.50;;
57085;SDS011;42964;42.910;23.792;2024-03-23T23:36:47;5.43;;;3.63;;
57085;SDS011;42964;42.910;23.792;2024-03-23T23:41:46;6.60;;;3.92;;
57085;SDS011;42964;42.910;23.792;2024-03-23T23:46:45;6.50;;;3.83;;
57085;SDS011;42964;42.910;23.792;2024-03-23T23:51:44;6.28;;;4.15;;
57085;SDS011;42964;42.910;23.792;2024-03-23T23:56:43;8.18;;;4.43;;
